Hatsu Excel — VSXV3 — position and weather

sailwx.info

Track history (hours):
 
Tides and Currents Weather Stations Pressure Air Temp Water Temp Dewpoint Dewpoint Depression Visibility Wind Speed Wind Dir Waves Ship Positions

Hatsu Excel

Last reported at 2014-Aug-26 00:12 UTC. Time now 2014-Sep-03 04:37 UTC.
Position N 35°38' E 022°38'.
Warning: this ship's position is 8 days out of date.

Type: Cargo ship. MMSI: 235479000.

Date/timePositionNaut miles runAvg speedWind from/ knotsBaromVisibWave heightAir tempDewpointWater temp
2014-Aug-26 00:12N 35°38' E 022°38'912.8
2014-Aug-25 23:31N 35°32' E 022°46'32513.0
2014-Aug-24 22:33N 32°16' E 027°58'1313.4
2014-Aug-24 21:33N 32°09' E 028°11'1613.1
2014-Aug-24 20:20N 31°59' E 028°27'1012.9
2014-Aug-24 19:32N 31°53' E 028°36'1512.6
2014-Aug-24 18:21N 31°45' E 028°51'1012.7
2014-Aug-24 17:34N 31°39' E 029°01'1312.9
2014-Aug-24 16:33N 31°32' E 029°13'1313.0
2014-Aug-24 15:33N 31°25' E 029°26'1312.5
2014-Aug-24 14:31N 31°18' E 029°39'1111.6
2014-Aug-24 13:34N 31°11' E 029°49'3 2.0
2014-Aug-24 12:16N 31°09' E 029°48'0 0.0
2014-Aug-24 06:33N 31°09' E 029°48'0 0.0
2014-Aug-24 05:30N 31°09' E 029°48'0 0.0
2014-Aug-24 03:23N 31°09' E 029°48'0 0.0
2014-Aug-24 02:32N 31°09' E 029°48'0 0.0
2014-Aug-24 01:31N 31°09' E 029°48'0 0.0
2014-Aug-24 00:34N 31°09' E 029°48'0 0.0
2014-Aug-23 23:34N 31°09' E 029°48'3 0.1
2014-Aug-23 00:33N 31°11' E 029°48'39 9.6
2014-Aug-22 20:32N 31°45' E 030°11'1813.0
2014-Aug-22 19:09N 31°53' E 030°29'5812.6
2014-Aug-22 14:34N 31°58' E 031°37'1312.6
2014-Aug-22 13:32N 31°59' E 031°52'1312.8
2014-Aug-22 12:34N 31°60' E 032°07'1312.9
2014-Aug-22 11:33N 32°01' E 032°22'1313.1
2014-Aug-22 10:33N 32°02' E 032°38'6913.7
2014-Aug-22 05:33N 32°05' E 033°59'1514.6
2014-Aug-22 04:31N 31°58' E 034°15'  
Track history (hours):
 
Tides and Currents Weather Stations Pressure Air Temp Water Temp Dewpoint Dewpoint Depression Visibility Wind Speed Wind Dir Waves Ship Positions

Hatsu Excel

Last reported at 2014-Aug-26 00:12 UTC. Time now 2014-Sep-03 04:37 UTC.
Position N 35°38' E 022°38'.
Warning: this ship's position is 8 days out of date.

Type: Cargo ship. MMSI: 235479000.

Date/timePositionNaut miles runAvg speedWind from/ knotsBaromVisibWave heightAir tempDewpointWater temp
2014-Aug-26 00:12N 35°38' E 022°38'912.8
2014-Aug-25 23:31N 35°32' E 022°46'32513.0
2014-Aug-24 22:33N 32°16' E 027°58'1313.4
2014-Aug-24 21:33N 32°09' E 028°11'1613.1
2014-Aug-24 20:20N 31°59' E 028°27'1012.9
2014-Aug-24 19:32N 31°53' E 028°36'1512.6
2014-Aug-24 18:21N 31°45' E 028°51'1012.7
2014-Aug-24 17:34N 31°39' E 029°01'1312.9
2014-Aug-24 16:33N 31°32' E 029°13'1313.0
2014-Aug-24 15:33N 31°25' E 029°26'1312.5
2014-Aug-24 14:31N 31°18' E 029°39'1111.6
2014-Aug-24 13:34N 31°11' E 029°49'3 2.0
2014-Aug-24 12:16N 31°09' E 029°48'0 0.0
2014-Aug-24 06:33N 31°09' E 029°48'0 0.0
2014-Aug-24 05:30N 31°09' E 029°48'0 0.0
2014-Aug-24 03:23N 31°09' E 029°48'0 0.0
2014-Aug-24 02:32N 31°09' E 029°48'0 0.0
2014-Aug-24 01:31N 31°09' E 029°48'0 0.0
2014-Aug-24 00:34N 31°09' E 029°48'0 0.0
2014-Aug-23 23:34N 31°09' E 029°48'3 0.1
2014-Aug-23 00:33N 31°11' E 029°48'39 9.6
2014-Aug-22 20:32N 31°45' E 030°11'1813.0
2014-Aug-22 19:09N 31°53' E 030°29'5812.6
2014-Aug-22 14:34N 31°58' E 031°37'1312.6
2014-Aug-22 13:32N 31°59' E 031°52'1312.8
2014-Aug-22 12:34N 31°60' E 032°07'1312.9
2014-Aug-22 11:33N 32°01' E 032°22'1313.1
2014-Aug-22 10:33N 32°02' E 032°38'6913.7
2014-Aug-22 05:33N 32°05' E 033°59'1514.6
2014-Aug-22 04:31N 31°58' E 034°15'  

Dump ship's entire track history